Time;durP1;ratioP1;P1;durP2;ratioP2;P2;SDS_P1;SDS_P2;PMS_P1;PMS_P2;Temp;Humidity;BMP_temperature;BMP_pressure;BME280_temperature;BME280_humidity;BME280_pressure;Samples;Min_cycle;Max_cycle;Signal;HPM_P1;HPM_P2
2022/05/08 00:01:49;;;;;;;6.87;3.10;;;14.50;99.90;;;;;;5040214;28;20463;-73
2022/05/08 00:04:19;;;;;;;5.23;2.40;;;14.60;99.90;;;;;;5037612;28;20765;-74
2022/05/08 00:06:47;;;;;;;2.90;2.57;;;14.70;99.90;;;;;;5028946;28;20556;-74
2022/05/08 00:09:14;;;;;;;6.63;3.00;;;14.70;99.90;;;;;;5041538;28;20499;-73
2022/05/08 00:11:43;;;;;;;5.23;3.03;;;14.60;99.90;;;;;;5045491;28;20949;-73
2022/05/08 00:14:10;;;;;;;3.73;2.67;;;14.60;99.90;;;;;;5038949;28;20494;-73
2022/05/08 00:16:39;;;;;;;7.17;4.53;;;14.60;99.90;;;;;;5040408;28;20549;-74
2022/05/08 00:19:07;;;;;;;7.70;3.43;;;14.50;99.90;;;;;;5023102;28;20562;-74
2022/05/08 00:21:38;;;;;;;8.90;3.33;;;14.60;99.90;;;;;;5034953;28;20481;-74
2022/05/08 00:24:11;;;;;;;4.13;2.90;;;14.50;99.90;;;;;;5038796;28;20455;-73
2022/05/08 00:26:41;;;;;;;4.43;3.80;;;14.40;99.90;;;;;;5034295;28;20533;-73
2022/05/08 00:29:11;;;;;;;5.60;3.50;;;14.30;99.90;;;;;;5038691;28;20567;-74
2022/05/08 00:31:43;;;;;;;9.73;5.60;;;14.30;99.90;;;;;;5028571;28;20476;-74
2022/05/08 00:34:12;;;;;;;5.00;3.60;;;14.10;99.90;;;;;;5030726;28;20491;-73
2022/05/08 00:36:45;;;;;;;4.70;3.43;;;14.20;99.90;;;;;;5037777;28;21967;-73
2022/05/08 00:39:18;;;;;;;5.60;3.23;;;14.20;99.90;;;;;;5032674;28;20480;-73
2022/05/08 00:41:47;;;;;;;5.20;3.03;;;14.30;99.90;;;;;;5035357;28;20614;-74
2022/05/08 00:44:21;;;;;;;14.57;5.40;;;14.40;99.90;;;;;;5034830;28;21015;-72
2022/05/08 00:46:49;;;;;;;7.73;4.10;;;14.40;99.90;;;;;;5039436;28;20559;-73
2022/05/08 00:49:17;;;;;;;7.43;3.97;;;14.30;99.90;;;;;;5025597;28;20587;-74
2022/05/08 00:51:48;;;;;;;6.80;4.00;;;14.20;99.90;;;;;;5032378;28;20469;-74
2022/05/08 00:54:16;;;;;;;5.47;4.67;;;14.20;99.90;;;;;;5041469;28;20830;-74
2022/05/08 00:56:46;;;;;;;5.13;3.40;;;14.10;99.90;;;;;;5045882;28;20468;-74
2022/05/08 00:59:17;;;;;;;7.50;4.70;;;14.20;99.90;;;;;;5040949;28;20472;-74
2022/05/08 01:01:44;;;;;;;8.17;3.90;;;14.30;99.90;;;;;;5041977;28;21058;-74
2022/05/08 01:04:14;;;;;;;5.43;3.90;;;14.30;99.90;;;;;;5042516;28;20492;-73
2022/05/08 01:06:48;;;;;;;8.00;3.73;;;14.30;99.90;;;;;;5033391;28;20947;-74
2022/05/08 01:09:15;;;;;;;8.60;3.70;;;14.10;99.90;;;;;;5044308;28;20495;-74
2022/05/08 01:11:52;;;;;;;6.00;4.20;;;14.00;99.90;;;;;;5045661;28;21046;-74
2022/05/08 01:14:31;;;;;;;5.63;3.73;;;14.00;99.90;;;;;;5042283;28;20487;-74
2022/05/08 01:17:00;;;;;;;6.87;4.63;;;14.10;99.90;;;;;;5040327;28;20464;-74
2022/05/08 01:19:28;;;;;;;5.90;3.63;;;14.00;99.90;;;;;;5035275;28;20438;-74
2022/05/08 01:21:55;;;;;;;9.20;4.60;;;14.00;99.90;;;;;;5035764;28;20936;-73
2022/05/08 01:24:28;;;;;;;5.10;3.43;;;14.00;99.90;;;;;;5040801;28;20452;-73
2022/05/08 01:26:58;;;;;;;4.10;3.40;;;13.80;99.90;;;;;;5037852;28;20460;-73
2022/05/08 01:29:26;;;;;;;15.23;4.50;;;13.80;99.90;;;;;;5031965;28;21045;-73
2022/05/08 01:31:56;;;;;;;8.17;4.50;;;13.80;99.90;;;;;;5041197;28;20484;-74
2022/05/08 01:34:25;;;;;;;7.37;4.10;;;13.70;99.90;;;;;;5042335;28;20475;-73
2022/05/08 01:36:57;;;;;;;6.37;4.17;;;13.70;99.90;;;;;;5036086;28;20464;-74
2022/05/08 01:39:23;;;;;;;8.90;5.33;;;13.70;99.90;;;;;;5036730;28;20579;-73
2022/05/08 01:41:52;;;;;;;17.60;5.40;;;13.70;99.90;;;;;;5045381;28;20452;-74
2022/05/08 01:44:19;;;;;;;9.60;6.13;;;13.60;99.90;;;;;;5035425;28;20457;-74
2022/05/08 01:46:49;;;;;;;10.70;6.47;;;13.70;99.90;;;;;;5027924;28;20463;-74
2022/05/08 01:49:15;;;;;;;7.60;4.67;;;13.50;99.90;;;;;;5028934;28;20483;-74
2022/05/08 01:51:46;;;;;;;8.47;3.33;;;13.50;99.90;;;;;;5043797;28;20712;-73
2022/05/08 01:54:22;;;;;;;12.63;6.40;;;13.50;99.90;;;;;;5045161;28;20502;-73
2022/05/08 01:56:49;;;;;;;10.40;5.50;;;13.40;99.90;;;;;;5027227;28;20434;-73
2022/05/08 01:59:16;;;;;;;8.60;6.33;;;13.30;99.90;;;;;;5025710;28;21719;-74
2022/05/08 02:01:44;;;;;;;9.40;6.07;;;13.20;99.90;;;;;;5022066;28;20504;-72
2022/05/08 02:04:15;;;;;;;12.50;7.00;;;13.30;99.90;;;;;;5021514;28;20455;-73
2022/05/08 02:06:42;;;;;;;8.27;5.00;;;13.20;99.90;;;;;;5032940;28;20614;-72
2022/05/08 02:09:18;;;;;;;5.80;4.50;;;13.10;99.90;;;;;;5034263;28;20538;-72
2022/05/08 02:11:47;;;;;;;13.87;5.07;;;13.00;99.90;;;;;;5034467;28;20818;-73
2022/05/08 02:14:14;;;;;;;10.60;7.87;;;13.10;99.90;;;;;;5037943;28;20480;-73
2022/05/08 02:16:43;;;;;;;9.20;5.77;;;13.10;99.90;;;;;;5031833;28;20434;-73
2022/05/08 02:19:23;;;;;;;8.57;5.60;;;13.10;99.90;;;;;;5038015;28;20457;-72
2022/05/08 02:21:56;;;;;;;10.60;6.10;;;13.10;99.90;;;;;;5039262;28;20484;-73
2022/05/08 02:24:25;;;;;;;16.20;5.83;;;13.00;99.90;;;;;;5041956;28;20481;-72
2022/05/08 02:26:53;;;;;;;6.63;4.63;;;12.90;99.90;;;;;;5035958;28;21973;-71
2022/05/08 02:29:19;;;;;;;8.53;5.60;;;12.90;99.90;;;;;;5039046;28;20498;-73
2022/05/08 02:31:47;;;;;;;8.27;5.60;;;13.00;99.90;;;;;;5028250;28;20915;-72
2022/05/08 02:34:17;;;;;;;7.57;5.60;;;13.00;99.90;;;;;;5040978;28;20970;-73
2022/05/08 02:36:47;;;;;;;12.30;5.77;;;13.00;99.90;;;;;;5040137;28;20438;-72
2022/05/08 02:39:23;;;;;;;6.43;4.77;;;12.60;99.90;;;;;;5034002;28;20475;-72
2022/05/08 02:41:53;;;;;;;10.70;6.57;;;12.50;99.90;;;;;;5037907;28;20459;-72
2022/05/08 02:44:33;;;;;;;21.67;9.17;;;12.40;99.90;;;;;;5041866;28;20443;-74
2022/05/08 02:47:02;;;;;;;8.97;5.00;;;12.30;99.90;;;;;;5035063;28;20934;-74
2022/05/08 02:49:36;;;;;;;12.93;6.60;;;12.30;99.90;;;;;;5041646;28;20836;-74
2022/05/08 02:52:12;;;;;;;12.87;6.60;;;12.40;99.90;;;;;;5031526;28;20434;-74
2022/05/08 02:54:47;;;;;;;8.13;5.80;;;12.40;99.90;;;;;;5041540;28;20478;-74
2022/05/08 03:00:16;;;;;;;11.70;6.27;;;12.40;99.90;;;;;;5030201;28;20458;-76
2022/05/08 03:02:42;;;;;;;11.87;7.33;;;12.50;99.90;;;;;;5040045;28;20487;-76
2022/05/08 03:05:16;;;;;;;15.40;5.70;;;12.70;99.90;;;;;;5031933;28;20455;-76
2022/05/08 03:07:43;;;;;;;12.90;6.60;;;12.70;99.90;;;;;;5036342;28;21085;-75
2022/05/08 03:10:12;;;;;;;15.43;6.67;;;12.60;99.90;;;;;;5044557;28;20483;-75
2022/05/08 03:12:41;;;;;;;13.10;7.40;;;12.40;99.90;;;;;;5042336;28;20941;-75
2022/05/08 03:15:13;;;;;;;10.57;6.63;;;12.40;99.90;;;;;;5035269;28;20484;-75
2022/05/08 03:17:40;;;;;;;15.90;6.73;;;12.30;99.90;;;;;;5044529;28;20450;-76
2022/05/08 03:20:11;;;;;;;7.43;6.00;;;12.20;99.90;;;;;;5043988;28;20575;-75
2022/05/08 03:22:39;;;;;;;13.77;7.87;;;12.10;99.90;;;;;;5042039;28;20451;-75
2022/05/08 03:25:08;;;;;;;16.83;6.87;;;12.20;99.90;;;;;;5035794;28;20598;-75
2022/05/08 03:27:39;;;;;;;11.83;7.43;;;12.20;99.90;;;;;;5027923;28;20454;-75
2022/05/08 03:30:08;;;;;;;9.63;6.00;;;12.20;99.90;;;;;;5046289;28;20564;-76
2022/05/08 03:32:38;;;;;;;9.70;6.17;;;12.10;99.90;;;;;;5046023;28;20460;-75
2022/05/08 03:35:08;;;;;;;11.10;5.10;;;11.90;99.90;;;;;;5042567;28;20643;-76
2022/05/08 03:37:34;;;;;;;4.43;3.03;;;11.90;99.90;;;;;;5048210;28;21049;-74
2022/05/08 03:40:04;;;;;;;8.37;4.80;;;11.70;99.90;;;;;;5038913;28;20463;-76
2022/05/08 03:42:31;;;;;;;4.60;2.83;;;11.70;99.90;;;;;;5031184;28;20991;-75
2022/05/08 03:44:59;;;;;;;6.13;3.10;;;11.60;99.90;;;;;;5028923;28;20422;-74
2022/05/08 03:47:30;;;;;;;4.47;2.53;;;11.50;99.90;;;;;;5030754;28;20471;-74
2022/05/08 03:50:02;;;;;;;10.63;2.73;;;11.40;99.90;;;;;;5035208;28;20460;-75
2022/05/08 03:52:29;;;;;;;6.53;3.00;;;11.30;99.90;;;;;;5031737;28;20549;-74
2022/05/08 03:54:57;;;;;;;7.13;4.03;;;11.20;99.90;;;;;;5041344;28;20482;-75
2022/05/08 03:57:26;;;;;;;6.07;2.53;;;11.10;99.90;;;;;;5032413;28;20485;-75
2022/05/08 03:59:55;;;;;;;17.23;2.80;;;11.00;99.90;;;;;;5033224;28;20464;-74
2022/05/08 04:02:21;;;;;;;9.70;2.20;;;10.90;99.90;;;;;;5042076;28;20555;-74
2022/05/08 04:04:48;;;;;;;10.10;2.83;;;10.70;99.90;;;;;;5032165;28;20802;-75
2022/05/08 04:07:17;;;;;;;3.83;2.30;;;10.70;99.90;;;;;;5035034;28;20460;-74
2022/05/08 04:09:44;;;;;;;3.20;1.00;;;10.70;99.90;;;;;;5044939;28;20992;-74
2022/05/08 04:12:23;;;;;;;15.70;3.40;;;10.70;99.90;;;;;;5035969;28;22123;-74
2022/05/08 04:14:53;;;;;;;5.90;2.70;;;10.70;99.90;;;;;;5042887;28;20886;-74
2022/05/08 04:17:26;;;;;;;8.90;3.33;;;10.80;99.90;;;;;;5041381;28;20431;-75
2022/05/08 04:19:53;;;;;;;4.00;2.20;;;10.90;99.90;;;;;;5041646;28;20452;-75
2022/05/08 04:25:11;;;;;;;8.07;3.00;;;11.00;99.90;;;;;;5036590;28;20962;-75
2022/05/08 04:27:39;;;;;;;12.23;2.90;;;11.10;99.90;;;;;;5040254;28;20552;-75
2022/05/08 04:30:08;;;;;;;4.83;2.40;;;11.20;99.90;;;;;;5041928;28;20438;-75
2022/05/08 04:32:35;;;;;;;5.30;2.50;;;11.30;99.90;;;;;;5030093;28;20487;-76
2022/05/08 04:35:07;;;;;;;2.13;1.80;;;11.10;99.90;;;;;;5035575;28;20475;-76
2022/05/08 04:37:35;;;;;;;5.83;2.50;;;11.20;99.90;;;;;;5037024;28;21184;-76
2022/05/08 04:40:06;;;;;;;22.37;3.47;;;11.00;99.90;;;;;;5029851;28;20453;-75
2022/05/08 04:42:37;;;;;;;5.83;2.93;;;11.10;99.90;;;;;;5035858;28;20434;-75
2022/05/08 04:45:05;;;;;;;8.60;3.03;;;11.30;99.90;;;;;;5024449;28;20867;-76
2022/05/08 04:47:34;;;;;;;4.43;2.30;;;11.30;99.90;;;;;;5037368;28;20558;-76
2022/05/08 04:50:05;;;;;;;4.77;2.17;;;11.30;99.90;;;;;;5041379;28;20422;-76
2022/05/08 04:52:34;;;;;;;7.83;3.33;;;11.40;99.90;;;;;;5038005;28;20442;-76
2022/05/08 04:55:03;;;;;;;4.33;2.20;;;11.40;99.90;;;;;;5035869;28;20851;-76
2022/05/08 04:57:33;;;;;;;8.97;3.67;;;11.30;99.90;;;;;;5033750;28;20507;-76
2022/05/08 05:00:00;;;;;;;5.97;3.10;;;11.40;99.90;;;;;;5024237;28;20427;-76
2022/05/08 05:02:29;;;;;;;16.77;4.17;;;11.40;99.90;;;;;;5039646;28;20492;-76
2022/05/08 05:05:00;;;;;;;11.23;2.33;;;11.40;99.90;;;;;;5041007;28;20537;-74
2022/05/08 05:07:42;;;;;;;6.03;3.17;;;11.60;99.90;;;;;;5016546;28;20447;-74
2022/05/08 05:10:13;;;;;;;11.33;3.33;;;11.50;99.90;;;;;;5026813;28;20434;-75
2022/05/08 05:12:44;;;;;;;6.83;2.63;;;11.40;99.90;;;;;;5033276;28;20511;-75
2022/05/08 05:15:13;;;;;;;11.90;3.47;;;11.30;99.90;;;;;;5042188;28;20467;-75
2022/05/08 05:17:41;;;;;;;8.83;3.40;;;11.50;99.90;;;;;;5037269;28;20483;-76
2022/05/08 05:20:11;;;;;;;3.40;2.70;;;11.50;99.90;;;;;;5042322;28;20848;-75
2022/05/08 05:22:48;;;;;;;2.93;2.10;;;11.50;99.90;;;;;;5035357;28;20855;-75
2022/05/08 05:25:21;;;;;;;6.60;3.23;;;11.50;99.90;;;;;;5017918;28;20463;-75
2022/05/08 05:27:51;;;;;;;8.47;3.60;;;11.60;99.90;;;;;;5034408;28;20527;-76
2022/05/08 05:30:23;;;;;;;4.40;2.40;;;11.80;99.90;;;;;;5037555;28;20439;-75
2022/05/08 05:32:50;;;;;;;7.00;2.47;;;11.80;99.90;;;;;;5039366;28;20536;-75
2022/05/08 05:35:17;;;;;;;3.50;2.60;;;11.80;99.90;;;;;;5028046;28;20481;-74
2022/05/08 05:37:43;;;;;;;10.33;4.17;;;11.90;99.90;;;;;;5036951;22;20504;-76
2022/05/08 05:40:16;;;;;;;8.90;2.87;;;12.10;99.90;;;;;;5017587;28;20963;-76
2022/05/08 05:42:48;;;;;;;5.47;2.57;;;12.50;99.90;;;;;;5032405;28;20587;-76
2022/05/08 05:45:22;;;;;;;4.93;2.30;;;12.70;99.90;;;;;;5029059;28;20459;-75
2022/05/08 05:47:59;;;;;;;9.50;3.00;;;12.80;99.90;;;;;;5026161;28;20471;-76
2022/05/08 05:50:33;;;;;;;7.73;2.60;;;13.00;99.90;;;;;;5029622;28;20520;-75
2022/05/08 05:53:00;;;;;;;4.33;2.40;;;13.30;99.90;;;;;;5026446;28;20465;-76
2022/05/08 05:55:31;;;;;;;14.30;2.37;;;13.60;99.90;;;;;;5006518;28;20911;-76
2022/05/08 05:58:01;;;;;;;7.10;3.23;;;13.50;99.90;;;;;;5019170;28;20506;-75
2022/05/08 06:00:29;;;;;;;8.43;3.10;;;13.90;99.90;;;;;;5034257;28;20455;-76
2022/05/08 06:02:57;;;;;;;10.57;2.70;;;13.50;99.90;;;;;;5030281;28;20456;-75
2022/05/08 06:05:26;;;;;;;5.37;2.80;;;13.50;99.90;;;;;;5039218;28;20491;-75
2022/05/08 06:07:55;;;;;;;10.17;3.83;;;13.40;99.90;;;;;;5034690;28;20984;-76
2022/05/08 06:10:22;;;;;;;5.70;2.40;;;13.30;99.90;;;;;;5031651;28;20829;-73
2022/05/08 06:12:52;;;;;;;8.93;3.13;;;13.60;99.90;;;;;;5034114;28;20983;-76
2022/05/08 06:15:29;;;;;;;9.43;3.20;;;14.00;99.90;;;;;;5035392;28;20502;-77
2022/05/08 06:17:57;;;;;;;13.83;3.30;;;14.00;99.90;;;;;;5029012;28;20780;-78
2022/05/08 06:20:24;;;;;;;4.50;3.20;;;14.30;99.90;;;;;;5036086;28;20837;-76
2022/05/08 06:22:50;;;;;;;2.87;2.07;;;14.90;99.90;;;;;;5043491;28;20896;-76
2022/05/08 06:25:17;;;;;;;10.13;2.90;;;14.80;99.90;;;;;;5032743;28;20481;-77
2022/05/08 06:27:45;;;;;;;8.70;2.80;;;15.00;99.90;;;;;;5032117;28;21000;-77
2022/05/08 06:30:15;;;;;;;4.47;2.50;;;14.70;99.90;;;;;;5039777;28;20449;-76
2022/05/08 06:32:44;;;;;;;8.80;2.50;;;14.40;99.90;;;;;;5026695;28;20461;-76
2022/05/08 06:35:17;;;;;;;5.13;4.10;;;13.90;99.90;;;;;;5029650;28;20454;-75
2022/05/08 06:37:45;;;;;;;3.67;2.30;;;13.40;99.90;;;;;;5033680;28;20506;-75
2022/05/08 06:40:19;;;;;;;10.07;2.67;;;13.30;99.90;;;;;;5033188;28;20737;-76
2022/05/08 06:42:49;;;;;;;8.43;3.43;;;13.60;99.90;;;;;;5031631;28;21267;-75
2022/05/08 06:45:18;;;;;;;9.00;2.73;;;13.30;99.90;;;;;;5037319;28;20464;-78
2022/05/08 06:47:46;;;;;;;14.00;3.27;;;13.10;99.90;;;;;;5033689;28;20483;-75
2022/05/08 06:50:13;;;;;;;2.73;2.13;;;13.10;99.90;;;;;;5017322;28;20471;-76
2022/05/08 06:52:39;;;;;;;8.17;4.20;;;12.80;99.90;;;;;;5030986;28;20438;-76
2022/05/08 06:55:08;;;;;;;7.90;3.30;;;12.80;99.90;;;;;;5019908;28;20753;-76
2022/05/08 06:57:35;;;;;;;18.47;3.27;;;12.60;99.90;;;;;;5036014;28;20669;-77
2022/05/08 07:02:43;;;;;;;6.30;2.50;;;12.70;99.90;;;;;;5003712;28;20724;-76
2022/05/08 07:05:24;;;;;;;5.20;2.60;;;12.90;99.90;;;;;;5017666;28;20527;-76
2022/05/08 07:07:54;;;;;;;13.70;3.67;;;13.00;99.90;;;;;;5003986;28;20514;-77
2022/05/08 07:10:23;;;;;;;7.97;2.60;;;13.10;99.90;;;;;;5058768;22;20585;-78
2022/05/08 07:12:50;;;;;;;6.63;2.90;;;13.10;99.90;;;;;;5027799;28;20459;-78
2022/05/08 07:15:17;;;;;;;4.93;1.67;;;13.50;99.90;;;;;;5042899;28;20478;-79
2022/05/08 07:17:44;;;;;;;9.17;3.17;;;13.50;99.90;;;;;;5059274;28;20506;-79
2022/05/08 07:20:11;;;;;;;4.43;2.00;;;13.40;99.90;;;;;;5045747;28;20485;-78
2022/05/08 07:22:39;;;;;;;9.83;3.17;;;13.60;99.90;;;;;;5052322;28;20452;-78
2022/05/08 07:25:07;;;;;;;3.80;2.97;;;13.30;99.90;;;;;;5056100;28;20498;-78
2022/05/08 07:27:36;;;;;;;7.07;2.00;;;13.30;99.90;;;;;;5058972;28;20492;-79
2022/05/08 07:30:04;;;;;;;6.27;3.47;;;13.50;99.90;;;;;;5054771;28;20504;-78
2022/05/08 07:32:31;;;;;;;5.47;2.60;;;13.40;99.90;;;;;;5056203;28;20436;-78
2022/05/08 07:37:44;;;;;;;3.17;1.90;;;13.40;99.90;;;;;;5055784;28;20451;-78
2022/05/08 07:40:11;;;;;;;3.13;2.40;;;13.80;99.90;;;;;;5053470;28;20515;-78
2022/05/08 07:42:38;;;;;;;13.23;2.57;;;13.80;99.90;;;;;;5047485;28;20863;-78
2022/05/08 07:45:06;;;;;;;5.50;2.80;;;14.00;99.90;;;;;;5051462;28;20458;-78
2022/05/08 07:47:33;;;;;;;3.43;2.27;;;13.90;99.90;;;;;;5053037;28;20476;-78
2022/05/08 07:50:00;;;;;;;2.73;1.43;;;13.80;99.90;;;;;;5054278;28;20527;-77
2022/05/08 07:52:27;;;;;;;2.43;2.23;;;14.80;99.90;;;;;;5048389;28;20721;-77
2022/05/08 07:54:55;;;;;;;6.27;2.23;;;15.00;99.90;;;;;;5049642;28;20471;-77
2022/05/08 07:57:22;;;;;;;2.30;1.60;;;15.50;99.90;;;;;;5056237;28;20455;-77
2022/05/08 07:59:50;;;;;;;2.20;1.63;;;15.50;99.90;;;;;;5049226;28;20479;-78
2022/05/08 08:02:17;;;;;;;6.53;2.20;;;14.80;99.90;;;;;;5051293;28;21185;-78
2022/05/08 08:04:43;;;;;;;8.70;2.93;;;14.90;99.90;;;;;;5052101;28;20468;-78
2022/05/08 08:07:10;;;;;;;10.73;3.17;;;14.80;99.90;;;;;;5052337;28;20472;-78
2022/05/08 08:09:37;;;;;;;6.50;3.00;;;14.90;99.90;;;;;;5050537;28;20494;-78
2022/05/08 08:12:06;;;;;;;6.17;2.10;;;15.40;99.90;;;;;;5045956;28;20517;-78
2022/05/08 08:14:33;;;;;;;9.97;2.17;;;15.70;99.90;;;;;;5055783;28;20462;-78
2022/05/08 08:17:00;;;;;;;16.60;4.13;;;15.90;99.90;;;;;;5048728;28;20994;-78
2022/05/08 08:19:26;;;;;;;6.20;3.10;;;16.00;99.90;;;;;;5053669;28;20553;-78
2022/05/08 08:21:53;;;;;;;8.20;2.43;;;16.10;99.90;;;;;;5047275;28;20539;-78
2022/05/08 08:24:20;;;;;;;4.23;2.33;;;16.10;99.90;;;;;;5052057;28;20517;-79
2022/05/08 08:26:46;;;;;;;7.50;3.30;;;16.10;99.90;;;;;;5049755;28;20463;-78
2022/05/08 08:29:16;;;;;;;10.87;3.07;;;16.10;99.90;;;;;;5053143;28;20463;-77
2022/05/08 08:31:43;;;;;;;5.93;2.90;;;16.40;99.90;;;;;;5051462;28;20486;-78
2022/05/08 08:34:10;;;;;;;4.93;2.33;;;16.30;99.90;;;;;;5055419;28;20465;-78
2022/05/08 08:36:37;;;;;;;4.33;2.33;;;16.40;99.90;;;;;;5052155;28;20486;-78
2022/05/08 08:39:03;;;;;;;4.60;2.60;;;16.90;99.90;;;;;;5049288;28;20521;-77
2022/05/08 08:41:35;;;;;;;10.47;3.90;;;16.70;99.90;;;;;;5042114;28;21177;-77
2022/05/08 08:49:42;;;;;;;10.20;2.60;;;16.80;99.90;;;;;;5048067;28;20638;-78
2022/05/08 08:52:11;;;;;;;6.97;2.90;;;16.90;99.90;;;;;;5048997;28;21143;-78
2022/05/08 08:54:38;;;;;;;12.00;2.80;;;16.60;99.90;;;;;;5053094;28;20450;-77
2022/05/08 08:57:05;;;;;;;9.70;2.43;;;16.60;99.90;;;;;;5047971;28;20467;-78
2022/05/08 08:59:31;;;;;;;4.53;2.57;;;16.40;99.90;;;;;;5053007;28;20510;-78
2022/05/08 09:01:59;;;;;;;6.67;2.20;;;16.70;99.90;;;;;;5047695;28;20459;-78
2022/05/08 09:04:26;;;;;;;6.40;2.73;;;17.00;99.90;;;;;;5045445;28;20488;-77
2022/05/08 09:06:53;;;;;;;13.73;3.67;;;17.30;99.90;;;;;;5047186;28;20451;-78
2022/05/08 09:09:24;;;;;;;11.80;3.10;;;16.90;99.90;;;;;;5043145;28;20540;-78
2022/05/08 09:11:51;;;;;;;7.50;2.07;;;17.00;99.90;;;;;;5052112;28;20450;-78
2022/05/08 09:14:32;;;;;;;6.60;3.00;;;17.30;99.90;;;;;;5054002;28;20517;-78
2022/05/08 09:17:01;;;;;;;10.03;4.13;;;17.50;99.90;;;;;;5052902;28;20577;-79
2022/05/08 09:19:34;;;;;;;3.10;2.10;;;17.50;99.90;;;;;;5053167;28;20869;-78
2022/05/08 09:22:03;;;;;;;4.47;2.93;;;17.90;99.90;;;;;;5043175;28;20460;-76
2022/05/08 09:24:31;;;;;;;8.50;2.50;;;17.60;99.90;;;;;;5032965;28;20456;-77
2022/05/08 09:27:15;;;;;;;7.13;2.33;;;17.40;99.90;;;;;;5035893;28;21123;-77
2022/05/08 09:29:43;;;;;;;7.13;2.60;;;17.50;99.90;;;;;;5047328;28;20931;-80
2022/05/08 09:32:34;;;;;;;9.00;2.67;;;17.30;99.90;;;;;;5049805;28;21689;-79
2022/05/08 09:35:02;;;;;;;13.23;3.20;;;17.50;99.90;;;;;;5054337;28;20833;-78
2022/05/08 09:37:29;;;;;;;4.90;2.60;;;17.30;99.90;;;;;;5047435;28;20971;-79
2022/05/08 09:40:17;;;;;;;6.70;2.77;;;17.30;99.90;;;;;;5044767;28;20480;-79
2022/05/08 09:42:44;;;;;;;7.43;2.73;;;17.50;99.90;;;;;;5050369;28;20473;-80
2022/05/08 09:45:11;;;;;;;7.90;2.57;;;17.40;99.90;;;;;;5053907;28;20970;-78
2022/05/08 09:47:41;;;;;;;6.50;2.37;;;17.40;99.90;;;;;;5050322;28;20476;-79
2022/05/08 09:50:11;;;;;;;7.23;1.87;;;17.60;99.90;;;;;;5054590;28;21117;-76
2022/05/08 09:52:39;;;;;;;8.97;2.73;;;17.50;99.90;;;;;;5035991;28;20469;-77
2022/05/08 09:55:08;;;;;;;5.07;2.63;;;17.70;99.90;;;;;;5050114;28;20555;-77
2022/05/08 09:57:34;;;;;;;5.40;3.43;;;17.50;99.90;;;;;;5048716;28;20517;-78
2022/05/08 10:00:02;;;;;;;14.03;3.70;;;17.30;99.90;;;;;;5045831;28;20901;-77
2022/05/08 10:02:29;;;;;;;6.73;2.40;;;17.60;99.90;;;;;;5036973;28;20466;-78
2022/05/08 10:04:57;;;;;;;9.90;3.23;;;17.90;99.90;;;;;;5042986;28;20459;-78
2022/05/08 10:07:26;;;;;;;2.57;2.00;;;18.00;99.90;;;;;;5041398;28;20542;-78
2022/05/08 10:15:35;;;;;;;8.60;3.90;;;19.00;99.90;;;;;;5039727;28;20474;-78
2022/05/08 10:18:25;;;;;;;5.40;2.30;;;19.00;99.90;;;;;;5050330;28;20595;-78
2022/05/08 10:21:06;;;;;;;5.40;2.17;;;19.30;99.90;;;;;;5051780;28;20514;-76
2022/05/08 10:23:39;;;;;;;13.43;2.67;;;19.10;99.90;;;;;;5056125;28;20456;-77
2022/05/08 10:26:24;;;;;;;11.63;4.00;;;19.30;99.90;;;;;;5053853;28;20487;-77
2022/05/08 10:29:13;;;;;;;7.50;2.50;;;19.40;99.90;;;;;;5040060;28;20610;-79
2022/05/08 10:31:45;;;;;;;3.80;2.20;;;19.60;99.90;;;;;;5030900;28;20460;-78
2022/05/08 10:34:13;;;;;;;11.80;2.30;;;19.40;99.90;;;;;;5034909;28;20843;-78
2022/05/08 10:37:16;;;;;;;9.70;2.47;;;19.20;99.90;;;;;;5039192;28;20479;-78
2022/05/08 10:39:45;;;;;;;4.50;1.80;;;19.60;99.90;;;;;;5043272;28;22580;-78
2022/05/08 10:42:45;;;;;;;6.33;3.50;;;19.50;99.90;;;;;;5042631;28;21261;-79
2022/05/08 10:45:40;;;;;;;6.10;3.00;;;19.80;99.90;;;;;;5049456;28;20516;-78
2022/05/08 10:48:12;;;;;;;4.80;2.20;;;20.00;99.90;;;;;;5053250;28;20463;-78
2022/05/08 10:50:44;;;;;;;3.33;2.30;;;21.20;99.90;;;;;;5050981;28;20482;-78
2022/05/08 10:53:28;;;;;;;3.00;1.90;;;22.40;97.30;;;;;;5035227;28;20467;-78
2022/05/08 10:56:03;;;;;;;2.37;1.40;;;22.20;95.50;;;;;;5044650;28;20576;-76
2022/05/08 10:58:30;;;;;;;7.00;2.47;;;22.00;94.20;;;;;;5044715;28;20448;-77
2022/05/08 11:01:02;;;;;;;7.83;3.00;;;22.50;95.80;;;;;;5046668;28;20479;-77
2022/05/08 11:03:29;;;;;;;2.63;2.43;;;23.20;93.10;;;;;;5054207;28;20464;-78
2022/05/08 11:05:58;;;;;;;14.53;2.60;;;23.70;91.80;;;;;;5058998;28;20455;-76
2022/05/08 11:08:31;;;;;;;3.67;2.30;;;23.40;90.40;;;;;;5060642;28;20468;-77
2022/05/08 11:11:07;;;;;;;4.63;3.47;;;23.70;87.90;;;;;;5067425;28;20492;-77
2022/05/08 11:13:50;;;;;;;3.73;1.80;;;24.00;83.80;;;;;;5056836;28;20500;-77
2022/05/08 11:16:33;;;;;;;4.33;2.53;;;22.70;86.00;;;;;;5054840;28;20491;-77
2022/05/08 11:19:01;;;;;;;9.23;2.83;;;23.70;87.30;;;;;;5048184;28;20456;-78
2022/05/08 11:21:30;;;;;;;4.13;2.60;;;25.30;84.80;;;;;;5043738;28;20472;-77
2022/05/08 11:23:59;;;;;;;9.07;3.47;;;25.30;81.40;;;;;;5052974;28;20514;-77
2022/05/08 11:26:33;;;;;;;6.23;3.50;;;24.30;86.10;;;;;;5059067;28;20463;-76
2022/05/08 11:29:00;;;;;;;9.60;4.27;;;25.00;83.50;;;;;;5039074;28;20556;-77
2022/05/08 11:31:33;;;;;;;4.00;2.60;;;25.60;84.20;;;;;;5050930;28;20539;-76
2022/05/08 11:36:45;;;;;;;3.13;2.60;;;27.00;77.60;;;;;;5053041;28;20491;-75
2022/05/08 11:39:18;;;;;;;6.60;3.30;;;27.20;74.90;;;;;;5050541;28;20598;-75
2022/05/08 11:41:49;;;;;;;4.97;2.80;;;27.20;72.80;;;;;;5054780;28;21014;-75
2022/05/08 11:44:28;;;;;;;10.03;2.53;;;27.00;69.70;;;;;;5043302;28;21571;-77
2022/05/08 11:46:56;;;;;;;4.70;3.00;;;26.20;72.70;;;;;;5047654;28;20466;-76
2022/05/08 11:49:24;;;;;;;3.67;3.33;;;25.40;77.20;;;;;;5049412;28;20454;-76
2022/05/08 11:51:53;;;;;;;9.93;3.30;;;26.10;76.70;;;;;;5045598;28;20460;-76
2022/05/08 11:54:32;;;;;;;4.13;3.23;;;26.80;78.10;;;;;;5053952;28;20465;-76
2022/05/08 11:57:14;;;;;;;4.13;2.40;;;26.80;72.90;;;;;;5055341;28;20585;-76
2022/05/08 11:59:44;;;;;;;4.03;2.70;;;27.50;69.90;;;;;;5044722;28;20489;-76
2022/05/08 12:02:12;;;;;;;7.83;2.83;;;27.10;73.10;;;;;;5045872;28;20885;-76
2022/05/08 12:04:39;;;;;;;6.47;3.40;;;27.40;70.80;;;;;;5054222;28;20999;-77
2022/05/08 12:07:09;;;;;;;6.97;2.53;;;26.80;69.80;;;;;;5047638;28;21194;-76
2022/05/08 12:09:47;;;;;;;6.50;2.57;;;26.80;71.70;;;;;;5051996;28;20574;-76
2022/05/08 12:12:31;;;;;;;6.20;2.80;;;26.50;70.70;;;;;;5051045;28;20473;-77
2022/05/08 12:15:01;;;;;;;4.83;2.30;;;26.50;70.30;;;;;;5056073;28;20516;-78
2022/05/08 12:17:30;;;;;;;4.00;2.83;;;26.90;73.40;;;;;;5044720;28;20497;-78
2022/05/08 12:19:58;;;;;;;4.03;2.67;;;27.40;66.90;;;;;;5056349;28;20477;-75
2022/05/08 12:22:26;;;;;;;5.07;2.67;;;27.50;66.60;;;;;;5057722;28;20468;-78
2022/05/08 12:24:55;;;;;;;4.90;2.53;;;27.20;64.70;;;;;;5048827;28;20472;-76
2022/05/08 12:27:24;;;;;;;8.20;3.47;;;27.10;65.80;;;;;;5052298;28;20469;-76
2022/05/08 12:29:53;;;;;;;8.90;3.57;;;27.50;62.70;;;;;;5048029;28;20907;-76
2022/05/08 12:32:24;;;;;;;5.03;3.00;;;27.20;66.70;;;;;;5047900;28;20464;-76
2022/05/08 12:34:53;;;;;;;3.90;2.53;;;27.00;67.50;;;;;;5039667;28;20461;-76
2022/05/08 12:37:21;;;;;;;8.87;3.17;;;26.90;65.70;;;;;;5033870;28;20803;-76
2022/05/08 12:39:48;;;;;;;6.43;3.13;;;27.20;63.70;;;;;;5045273;28;20881;-77
2022/05/08 12:42:15;;;;;;;3.47;2.50;;;27.90;59.50;;;;;;5052048;28;20992;-77
2022/05/08 12:44:44;;;;;;;4.73;2.57;;;28.30;61.00;;;;;;5044301;28;20619;-76
2022/05/08 12:47:13;;;;;;;5.10;2.77;;;28.60;59.50;;;;;;5043664;28;20504;-76
2022/05/08 12:49:41;;;;;;;3.40;2.53;;;28.10;58.70;;;;;;5037975;28;21230;-77
2022/05/08 12:52:11;;;;;;;4.40;3.00;;;28.40;59.60;;;;;;5044134;28;20465;-76
2022/05/08 12:54:39;;;;;;;6.50;3.80;;;28.50;60.20;;;;;;5044539;28;20461;-76
2022/05/08 12:57:08;;;;;;;5.00;2.63;;;29.30;58.40;;;;;;5045531;28;21147;-76
2022/05/08 12:59:47;;;;;;;4.63;3.77;;;29.40;58.80;;;;;;5046267;28;20485;-76
2022/05/08 13:02:19;;;;;;;6.93;3.20;;;28.80;58.70;;;;;;5039410;28;20464;-76
2022/05/08 13:04:48;;;;;;;4.60;3.20;;;28.10;58.90;;;;;;5045128;28;20529;-77
2022/05/08 13:07:15;;;;;;;10.67;4.80;;;28.50;59.70;;;;;;5032692;28;20521;-77
2022/05/08 13:09:46;;;;;;;9.27;4.07;;;28.10;58.50;;;;;;5042702;28;20480;-76
2022/05/08 13:12:17;;;;;;;6.80;3.00;;;28.40;58.30;;;;;;5047115;28;21023;-76
2022/05/08 13:14:47;;;;;;;7.60;3.40;;;28.30;58.60;;;;;;5045312;28;20570;-75
2022/05/08 13:17:21;;;;;;;5.00;2.83;;;28.90;56.30;;;;;;5035669;28;20457;-78
2022/05/08 13:19:50;;;;;;;4.30;2.70;;;28.40;57.90;;;;;;5043979;28;20968;-77
2022/05/08 13:22:19;;;;;;;5.80;2.93;;;28.20;57.60;;;;;;5047838;28;20460;-77
2022/05/08 13:24:46;;;;;;;4.87;2.90;;;28.10;58.60;;;;;;5045493;28;20460;-76
2022/05/08 13:27:13;;;;;;;6.13;3.30;;;28.10;59.30;;;;;;5047177;28;20473;-77